sensor_id;sensor_type;location;lat;lon;timestamp;pressure;altitude;pressure_sealevel;temperature;humidity
9335;BME280;4706;41.844;26.082;2022-12-18T00:01:01;101401.53;;;12.91;100.00
9335;BME280;4706;41.844;26.082;2022-12-18T00:03:34;101386.94;;;12.85;100.00
9335;BME280;4706;41.844;26.082;2022-12-18T00:06:00;101392.94;;;12.93;100.00
9335;BME280;4706;41.844;26.082;2022-12-18T00:08:25;101399.50;;;12.97;100.00
9335;BME280;4706;41.844;26.082;2022-12-18T00:10:51;101390.75;;;12.89;100.00
9335;BME280;4706;41.844;26.082;2022-12-18T00:13:16;101399.28;;;12.93;100.00
9335;BME280;4706;41.844;26.082;2022-12-18T00:15:42;101397.78;;;13.01;100.00
9335;BME280;4706;41.844;26.082;2022-12-18T00:18:08;101406.91;;;13.01;100.00
9335;BME280;4706;41.844;26.082;2022-12-18T00:20:38;101397.50;;;13.02;100.00
9335;BME280;4706;41.844;26.082;2022-12-18T00:23:04;101385.34;;;13.03;100.00
9335;BME280;4706;41.844;26.082;2022-12-18T00:25:33;101384.66;;;12.93;100.00
9335;BME280;4706;41.844;26.082;2022-12-18T00:27:58;101404.16;;;13.01;100.00
9335;BME280;4706;41.844;26.082;2022-12-18T00:30:24;101400.84;;;12.99;100.00
9335;BME280;4706;41.844;26.082;2022-12-18T00:32:49;101390.41;;;12.96;100.00
9335;BME280;4706;41.844;26.082;2022-12-18T00:35:15;101398.31;;;13.03;100.00
9335;BME280;4706;41.844;26.082;2022-12-18T00:37:40;101404.66;;;13.03;100.00
9335;BME280;4706;41.844;26.082;2022-12-18T00:40:06;101414.00;;;13.07;100.00
9335;BME280;4706;41.844;26.082;2022-12-18T00:42:32;101402.44;;;13.05;100.00
9335;BME280;4706;41.844;26.082;2022-12-18T00:45:16;101392.81;;;13.03;100.00
9335;BME280;4706;41.844;26.082;2022-12-18T00:47:42;101404.31;;;13.10;100.00
9335;BME280;4706;41.844;26.082;2022-12-18T00:50:08;101404.34;;;13.05;100.00
9335;BME280;4706;41.844;26.082;2022-12-18T00:52:34;101404.06;;;13.06;100.00
9335;BME280;4706;41.844;26.082;2022-12-18T00:55:00;101400.41;;;13.11;100.00
9335;BME280;4706;41.844;26.082;2022-12-18T00:57:25;101392.72;;;13.08;100.00
9335;BME280;4706;41.844;26.082;2022-12-18T00:59:50;101394.81;;;13.16;100.00
9335;BME280;4706;41.844;26.082;2022-12-18T01:02:16;101396.25;;;13.13;100.00
9335;BME280;4706;41.844;26.082;2022-12-18T01:04:42;101385.34;;;13.03;100.00
9335;BME280;4706;41.844;26.082;2022-12-18T01:07:07;101397.97;;;13.09;100.00
9335;BME280;4706;41.844;26.082;2022-12-18T01:09:34;101400.34;;;13.16;100.00
9335;BME280;4706;41.844;26.082;2022-12-18T01:12:00;101404.75;;;13.17;100.00
9335;BME280;4706;41.844;26.082;2022-12-18T01:14:25;101399.38;;;13.07;100.00
9335;BME280;4706;41.844;26.082;2022-12-18T01:16:51;101413.56;;;13.19;100.00
9335;BME280;4706;41.844;26.082;2022-12-18T01:19:16;101401.91;;;13.03;100.00
9335;BME280;4706;41.844;26.082;2022-12-18T01:21:42;101405.72;;;13.07;100.00
9335;BME280;4706;41.844;26.082;2022-12-18T01:24:07;101401.00;;;13.08;100.00
9335;BME280;4706;41.844;26.082;2022-12-18T01:26:33;101410.06;;;13.13;100.00
9335;BME280;4706;41.844;26.082;2022-12-18T01:28:58;101415.50;;;13.19;100.00
9335;BME280;4706;41.844;26.082;2022-12-18T01:31:29;101422.97;;;13.18;100.00
9335;BME280;4706;41.844;26.082;2022-12-18T01:33:56;101420.56;;;13.11;100.00
9335;BME280;4706;41.844;26.082;2022-12-18T01:36:24;101402.28;;;13.16;100.00
9335;BME280;4706;41.844;26.082;2022-12-18T01:38:51;101409.78;;;13.34;100.00
9335;BME280;4706;41.844;26.082;2022-12-18T01:41:19;101409.06;;;13.28;100.00
9335;BME280;4706;41.844;26.082;2022-12-18T01:43:54;101408.34;;;13.18;100.00
9335;BME280;4706;41.844;26.082;2022-12-18T01:46:22;101415.22;;;13.20;100.00
9335;BME280;4706;41.844;26.082;2022-12-18T01:48:54;101398.13;;;13.18;100.00
9335;BME280;4706;41.844;26.082;2022-12-18T01:51:20;101382.06;;;13.20;100.00
9335;BME280;4706;41.844;26.082;2022-12-18T01:53:46;101396.75;;;13.16;100.00
9335;BME280;4706;41.844;26.082;2022-12-18T01:56:15;101415.03;;;13.11;100.00
9335;BME280;4706;41.844;26.082;2022-12-18T01:59:02;101423.91;;;13.08;100.00
9335;BME280;4706;41.844;26.082;2022-12-18T02:01:31;101417.06;;;13.06;100.00
9335;BME280;4706;41.844;26.082;2022-12-18T02:04:21;101421.25;;;13.03;100.00
9335;BME280;4706;41.844;26.082;2022-12-18T02:06:52;101416.25;;;13.05;100.00
9335;BME280;4706;41.844;26.082;2022-12-18T02:09:32;101412.94;;;13.03;100.00
9335;BME280;4706;41.844;26.082;2022-12-18T02:14:41;101428.84;;;13.11;100.00
9335;BME280;4706;41.844;26.082;2022-12-18T02:17:21;101429.16;;;13.10;100.00
9335;BME280;4706;41.844;26.082;2022-12-18T02:19:54;101438.09;;;13.26;100.00
9335;BME280;4706;41.844;26.082;2022-12-18T02:25:32;101438.56;;;13.09;100.00
9335;BME280;4706;41.844;26.082;2022-12-18T02:27:50;101426.91;;;13.12;100.00
9335;BME280;4706;41.844;26.082;2022-12-18T02:30:18;101425.28;;;13.11;100.00
9335;BME280;4706;41.844;26.082;2022-12-18T02:32:48;101429.03;;;13.20;100.00
9335;BME280;4706;41.844;26.082;2022-12-18T02:35:20;101410.88;;;13.14;100.00
9335;BME280;4706;41.844;26.082;2022-12-18T02:37:46;101440.31;;;13.24;100.00
9335;BME280;4706;41.844;26.082;2022-12-18T02:40:14;101439.13;;;13.30;100.00
9335;BME280;4706;41.844;26.082;2022-12-18T02:42:42;101443.06;;;13.24;100.00
9335;BME280;4706;41.844;26.082;2022-12-18T02:45:08;101438.41;;;13.24;100.00
9335;BME280;4706;41.844;26.082;2022-12-18T02:47:38;101444.75;;;13.20;100.00
9335;BME280;4706;41.844;26.082;2022-12-18T02:55:59;101463.00;;;13.21;100.00
9335;BME280;4706;41.844;26.082;2022-12-18T02:59:16;101450.69;;;13.13;100.00
9335;BME280;4706;41.844;26.082;2022-12-18T03:04:04;101480.34;;;13.26;100.00
9335;BME280;4706;41.844;26.082;2022-12-18T03:06:37;101486.75;;;13.22;100.00
9335;BME280;4706;41.844;26.082;2022-12-18T03:09:10;101479.84;;;13.19;100.00
9335;BME280;4706;41.844;26.082;2022-12-18T03:11:40;101485.63;;;13.23;100.00
9335;BME280;4706;41.844;26.082;2022-12-18T03:14:40;101477.31;;;13.23;100.00
9335;BME280;4706;41.844;26.082;2022-12-18T03:17:13;101491.56;;;13.35;100.00
9335;BME280;4706;41.844;26.082;2022-12-18T03:19:41;101494.84;;;13.37;100.00
9335;BME280;4706;41.844;26.082;2022-12-18T03:22:09;101497.94;;;13.35;100.00
9335;BME280;4706;41.844;26.082;2022-12-18T03:24:35;101499.34;;;13.33;100.00
9335;BME280;4706;41.844;26.082;2022-12-18T03:27:06;101496.56;;;13.33;100.00
9335;BME280;4706;41.844;26.082;2022-12-18T03:29:48;101497.38;;;13.33;100.00
9335;BME280;4706;41.844;26.082;2022-12-18T03:32:25;101506.50;;;13.34;100.00
9335;BME280;4706;41.844;26.082;2022-12-18T03:34:55;101497.06;;;13.35;100.00
9335;BME280;4706;41.844;26.082;2022-12-18T03:37:23;101511.56;;;13.27;100.00
9335;BME280;4706;41.844;26.082;2022-12-18T03:39:49;101512.41;;;13.22;100.00
9335;BME280;4706;41.844;26.082;2022-12-18T03:47:53;101528.19;;;13.22;100.00
9335;BME280;4706;41.844;26.082;2022-12-18T03:50:36;101538.41;;;13.21;100.00
9335;BME280;4706;41.844;26.082;2022-12-18T03:55:32;101537.88;;;13.19;100.00
9335;BME280;4706;41.844;26.082;2022-12-18T03:58:01;101531.88;;;13.12;100.00
9335;BME280;4706;41.844;26.082;2022-12-18T04:00:28;101522.03;;;13.06;100.00
9335;BME280;4706;41.844;26.082;2022-12-18T04:02:56;101542.81;;;13.22;100.00
9335;BME280;4706;41.844;26.082;2022-12-18T04:05:23;101545.91;;;13.16;100.00
9335;BME280;4706;41.844;26.082;2022-12-18T04:07:51;101546.47;;;13.18;100.00
9335;BME280;4706;41.844;26.082;2022-12-18T04:10:19;101550.88;;;13.19;100.00
9335;BME280;4706;41.844;26.082;2022-12-18T04:12:44;101548.66;;;13.21;100.00
9335;BME280;4706;41.844;26.082;2022-12-18T04:15:12;101552.00;;;13.18;100.00
9335;BME280;4706;41.844;26.082;2022-12-18T04:17:38;101547.34;;;13.13;100.00
9335;BME280;4706;41.844;26.082;2022-12-18T04:20:08;101557.44;;;13.23;100.00
9335;BME280;4706;41.844;26.082;2022-12-18T04:22:34;101570.19;;;13.19;100.00
9335;BME280;4706;41.844;26.082;2022-12-18T04:25:00;101555.09;;;13.11;100.00
9335;BME280;4706;41.844;26.082;2022-12-18T04:27:26;101567.22;;;13.15;100.00
9335;BME280;4706;41.844;26.082;2022-12-18T04:29:51;101564.63;;;13.24;100.00
9335;BME280;4706;41.844;26.082;2022-12-18T04:32:17;101566.31;;;13.20;100.00
9335;BME280;4706;41.844;26.082;2022-12-18T04:34:43;101575.94;;;13.27;100.00
9335;BME280;4706;41.844;26.082;2022-12-18T04:37:08;101578.22;;;13.20;100.00
9335;BME280;4706;41.844;26.082;2022-12-18T04:39:34;101570.84;;;13.10;100.00
9335;BME280;4706;41.844;26.082;2022-12-18T04:41:59;101573.53;;;13.16;100.00
9335;BME280;4706;41.844;26.082;2022-12-18T04:44:24;101576.63;;;13.14;100.00
9335;BME280;4706;41.844;26.082;2022-12-18T04:46:50;101581.31;;;13.13;100.00
9335;BME280;4706;41.844;26.082;2022-12-18T04:49:16;101577.97;;;13.17;100.00
9335;BME280;4706;41.844;26.082;2022-12-18T04:51:41;101582.97;;;13.15;100.00
9335;BME280;4706;41.844;26.082;2022-12-18T04:54:07;101589.03;;;13.17;100.00
9335;BME280;4706;41.844;26.082;2022-12-18T04:56:32;101586.97;;;13.27;100.00
9335;BME280;4706;41.844;26.082;2022-12-18T04:58:58;101589.25;;;13.20;100.00
9335;BME280;4706;41.844;26.082;2022-12-18T05:01:23;101591.19;;;13.20;100.00
9335;BME280;4706;41.844;26.082;2022-12-18T05:03:51;101591.50;;;13.18;100.00
9335;BME280;4706;41.844;26.082;2022-12-18T05:06:16;101582.41;;;13.12;100.00
9335;BME280;4706;41.844;26.082;2022-12-18T05:08:41;101600.31;;;13.20;100.00
9335;BME280;4706;41.844;26.082;2022-12-18T05:11:10;101596.97;;;13.23;100.00
9335;BME280;4706;41.844;26.082;2022-12-18T05:13:36;101601.91;;;13.26;100.00
9335;BME280;4706;41.844;26.082;2022-12-18T05:16:03;101601.63;;;13.28;100.00
9335;BME280;4706;41.844;26.082;2022-12-18T05:18:29;101606.09;;;13.24;100.00
9335;BME280;4706;41.844;26.082;2022-12-18T05:20:55;101595.88;;;13.19;100.00
9335;BME280;4706;41.844;26.082;2022-12-18T05:23:22;101609.69;;;13.24;100.00
9335;BME280;4706;41.844;26.082;2022-12-18T05:25:59;101610.81;;;13.18;100.00
9335;BME280;4706;41.844;26.082;2022-12-18T05:28:27;101614.13;;;13.20;100.00
9335;BME280;4706;41.844;26.082;2022-12-18T05:30:55;101619.75;;;13.10;100.00
9335;BME280;4706;41.844;26.082;2022-12-18T05:33:22;101626.16;;;13.05;100.00
9335;BME280;4706;41.844;26.082;2022-12-18T05:35:56;101632.19;;;13.07;100.00
9335;BME280;4706;41.844;26.082;2022-12-18T05:38:23;101637.66;;;13.12;100.00
9335;BME280;4706;41.844;26.082;2022-12-18T05:40:50;101635.44;;;13.15;100.00
9335;BME280;4706;41.844;26.082;2022-12-18T05:43:17;101639.34;;;13.13;100.00
9335;BME280;4706;41.844;26.082;2022-12-18T05:45:43;101643.66;;;13.25;100.00
9335;BME280;4706;41.844;26.082;2022-12-18T05:48:09;101655.53;;;13.25;100.00
9335;BME280;4706;41.844;26.082;2022-12-18T05:50:39;101642.56;;;13.21;100.00
9335;BME280;4706;41.844;26.082;2022-12-18T05:53:06;101661.34;;;13.24;100.00
9335;BME280;4706;41.844;26.082;2022-12-18T05:55:39;101666.31;;;13.22;100.00
9335;BME280;4706;41.844;26.082;2022-12-18T05:58:06;101669.34;;;13.25;100.00
9335;BME280;4706;41.844;26.082;2022-12-18T06:00:34;101669.34;;;13.25;100.00
9335;BME280;4706;41.844;26.082;2022-12-18T06:03:00;101659.94;;;13.26;100.00
9335;BME280;4706;41.844;26.082;2022-12-18T06:05:26;101675.16;;;13.24;100.00
9335;BME280;4706;41.844;26.082;2022-12-18T06:07:52;101672.41;;;13.19;100.00
9335;BME280;4706;41.844;26.082;2022-12-18T06:10:17;101687.06;;;13.24;100.00
9335;BME280;4706;41.844;26.082;2022-12-18T06:12:43;101681.28;;;13.16;100.00
9335;BME280;4706;41.844;26.082;2022-12-18T06:15:09;101690.88;;;13.28;100.00
9335;BME280;4706;41.844;26.082;2022-12-18T06:17:35;101690.91;;;13.23;100.00
9335;BME280;4706;41.844;26.082;2022-12-18T06:20:00;101704.38;;;13.30;100.00
9335;BME280;4706;41.844;26.082;2022-12-18T06:22:26;101689.25;;;13.22;100.00
9335;BME280;4706;41.844;26.082;2022-12-18T06:24:53;101695.03;;;13.26;100.00
9335;BME280;4706;41.844;26.082;2022-12-18T06:27:18;101704.44;;;13.20;100.00
9335;BME280;4706;41.844;26.082;2022-12-18T06:29:44;101721.78;;;13.30;100.00
9335;BME280;4706;41.844;26.082;2022-12-18T06:32:09;101717.69;;;13.28;100.00
9335;BME280;4706;41.844;26.082;2022-12-18T06:34:37;101727.88;;;13.32;100.00
9335;BME280;4706;41.844;26.082;2022-12-18T06:37:03;101741.03;;;13.41;100.00
9335;BME280;4706;41.844;26.082;2022-12-18T06:39:28;101737.41;;;13.45;100.00
9335;BME280;4706;41.844;26.082;2022-12-18T06:41:54;101747.97;;;13.38;100.00
9335;BME280;4706;41.844;26.082;2022-12-18T06:44:19;101740.31;;;13.30;100.00
9335;BME280;4706;41.844;26.082;2022-12-18T06:46:45;101746.03;;;13.39;100.00
9335;BME280;4706;41.844;26.082;2022-12-18T06:49:11;101762.59;;;13.39;100.00
9335;BME280;4706;41.844;26.082;2022-12-18T06:51:37;101754.91;;;13.35;100.00
9335;BME280;4706;41.844;26.082;2022-12-18T06:54:02;101767.03;;;13.40;100.00
9335;BME280;4706;41.844;26.082;2022-12-18T06:56:28;101770.66;;;13.35;100.00
9335;BME280;4706;41.844;26.082;2022-12-18T06:58:54;101780.38;;;13.32;100.00
9335;BME280;4706;41.844;26.082;2022-12-18T07:01:20;101781.50;;;13.31;100.00
9335;BME280;4706;41.844;26.082;2022-12-18T07:03:46;101791.16;;;13.29;100.00
9335;BME280;4706;41.844;26.082;2022-12-18T07:06:18;101793.13;;;13.23;100.00
9335;BME280;4706;41.844;26.082;2022-12-18T07:08:44;101785.56;;;13.39;100.00
9335;BME280;4706;41.844;26.082;2022-12-18T07:11:10;101799.03;;;13.46;100.00
9335;BME280;4706;41.844;26.082;2022-12-18T07:13:35;101792.50;;;13.36;100.00
9335;BME280;4706;41.844;26.082;2022-12-18T07:16:16;101795.91;;;13.23;100.00
9335;BME280;4706;41.844;26.082;2022-12-18T07:18:41;101770.03;;;13.09;100.00
9335;BME280;4706;41.844;26.082;2022-12-18T07:21:09;101814.66;;;13.26;100.00
9335;BME280;4706;41.844;26.082;2022-12-18T07:23:35;101809.16;;;13.21;100.00
9335;BME280;4706;41.844;26.082;2022-12-18T07:26:06;101835.63;;;13.32;100.00
9335;BME280;4706;41.844;26.082;2022-12-18T07:28:33;101839.53;;;13.31;100.00
9335;BME280;4706;41.844;26.082;2022-12-18T07:31:06;101841.44;;;13.31;100.00
9335;BME280;4706;41.844;26.082;2022-12-18T07:33:33;101838.91;;;13.34;100.00
9335;BME280;4706;41.844;26.082;2022-12-18T07:36:00;101853.53;;;13.40;100.00
9335;BME280;4706;41.844;26.082;2022-12-18T07:38:26;101858.38;;;13.53;100.00
9335;BME280;4706;41.844;26.082;2022-12-18T07:40:51;101861.16;;;13.53;100.00
9335;BME280;4706;41.844;26.082;2022-12-18T07:43:17;101837.31;;;13.28;100.00
9335;BME280;4706;41.844;26.082;2022-12-18T07:45:42;101879.88;;;13.27;100.00
9335;BME280;4706;41.844;26.082;2022-12-18T07:48:08;101887.63;;;13.25;100.00
9335;BME280;4706;41.844;26.082;2022-12-18T07:50:33;101893.09;;;13.30;100.00
9335;BME280;4706;41.844;26.082;2022-12-18T07:52:59;101890.91;;;13.32;100.00
9335;BME280;4706;41.844;26.082;2022-12-18T07:55:29;101892.03;;;13.26;100.00
9335;BME280;4706;41.844;26.082;2022-12-18T07:57:55;101892.31;;;13.20;100.00
9335;BME280;4706;41.844;26.082;2022-12-18T08:00:20;101889.56;;;13.20;100.00
9335;BME280;4706;41.844;26.082;2022-12-18T08:02:46;101897.28;;;13.28;100.00
9335;BME280;4706;41.844;26.082;2022-12-18T08:05:12;101902.22;;;13.36;100.00
9335;BME280;4706;41.844;26.082;2022-12-18T08:07:39;101911.53;;;13.45;100.00
9335;BME280;4706;41.844;26.082;2022-12-18T08:10:05;101900.25;;;13.36;100.00
9335;BME280;4706;41.844;26.082;2022-12-18T08:12:31;101901.03;;;13.42;100.00
9335;BME280;4706;41.844;26.082;2022-12-18T08:14:56;101908.56;;;13.36;100.00
9335;BME280;4706;41.844;26.082;2022-12-18T08:17:22;101915.41;;;13.44;100.00
9335;BME280;4706;41.844;26.082;2022-12-18T08:19:47;101920.69;;;13.41;100.00
9335;BME280;4706;41.844;26.082;2022-12-18T08:22:13;101915.41;;;13.44;100.00
9335;BME280;4706;41.844;26.082;2022-12-18T08:24:38;101916.53;;;13.43;100.00
9335;BME280;4706;41.844;26.082;2022-12-18T08:27:04;101908.81;;;13.40;100.00
9335;BME280;4706;41.844;26.082;2022-12-18T08:29:29;101920.94;;;13.44;100.00
9335;BME280;4706;41.844;26.082;2022-12-18T08:31:55;101915.41;;;13.44;100.00
9335;BME280;4706;41.844;26.082;2022-12-18T08:34:21;101922.25;;;13.52;100.00
9335;BME280;4706;41.844;26.082;2022-12-18T08:36:47;101917.59;;;13.47;100.00
9335;BME280;4706;41.844;26.082;2022-12-18T08:39:12;101924.97;;;13.57;100.00
9335;BME280;4706;41.844;26.082;2022-12-18T08:41:38;101910.31;;;13.62;100.00
9335;BME280;4706;41.844;26.082;2022-12-18T08:44:03;101910.34;;;13.56;100.00
9335;BME280;4706;41.844;26.082;2022-12-18T08:46:47;101919.97;;;13.64;100.00
9335;BME280;4706;41.844;26.082;2022-12-18T08:49:13;101908.41;;;13.57;100.00
9335;BME280;4706;41.844;26.082;2022-12-18T08:51:39;101919.69;;;13.66;100.00
9335;BME280;4706;41.844;26.082;2022-12-18T08:54:05;101911.97;;;13.57;100.00
9335;BME280;4706;41.844;26.082;2022-12-18T08:56:31;101920.81;;;13.59;100.00
9335;BME280;4706;41.844;26.082;2022-12-18T08:58:57;101900.66;;;13.59;100.00
9335;BME280;4706;41.844;26.082;2022-12-18T09:01:23;101916.78;;;13.81;100.00
9335;BME280;4706;41.844;26.082;2022-12-18T09:03:49;101914.09;;;13.71;100.00
9335;BME280;4706;41.844;26.082;2022-12-18T09:06:19;101912.47;;;13.70;100.00
9335;BME280;4706;41.844;26.082;2022-12-18T09:08:45;101906.38;;;13.68;100.00
9335;BME280;4706;41.844;26.082;2022-12-18T09:11:19;101917.13;;;13.74;100.00
9335;BME280;4706;41.844;26.082;2022-12-18T09:13:45;101919.81;;;13.79;100.00
9335;BME280;4706;41.844;26.082;2022-12-18T09:16:11;101919.31;;;13.77;100.00
9335;BME280;4706;41.844;26.082;2022-12-18T09:18:36;101919.06;;;13.74;100.00
9335;BME280;4706;41.844;26.082;2022-12-18T09:21:13;101912.22;;;13.66;100.00
9335;BME280;4706;41.844;26.082;2022-12-18T09:23:39;101910.31;;;13.62;100.00
9335;BME280;4706;41.844;26.082;2022-12-18T09:26:05;101902.47;;;13.74;100.00
9335;BME280;4706;41.844;26.082;2022-12-18T09:28:31;101909.41;;;13.71;100.00
9335;BME280;4706;41.844;26.082;2022-12-18T09:30:56;101898.38;;;13.66;100.00
9335;BME280;4706;41.844;26.082;2022-12-18T09:33:22;101902.84;;;13.62;100.00
9335;BME280;4706;41.844;26.082;2022-12-18T09:35:47;101908.75;;;13.84;100.00
9335;BME280;4706;41.844;26.082;2022-12-18T09:38:16;101909.00;;;13.83;100.00
9335;BME280;4706;41.844;26.082;2022-12-18T09:40:53;101916.38;;;13.64;100.00
9335;BME280;4706;41.844;26.082;2022-12-18T09:43:28;101905.97;;;13.50;100.00
9335;BME280;4706;41.844;26.082;2022-12-18T09:45:59;101900.53;;;13.40;100.00
9335;BME280;4706;41.844;26.082;2022-12-18T09:48:36;101910.34;;;13.56;100.00
9335;BME280;4706;41.844;26.082;2022-12-18T09:51:17;101907.88;;;13.55;100.00
9335;BME280;4706;41.844;26.082;2022-12-18T09:53:49;101908.00;;;13.40;100.00
9335;BME280;4706;41.844;26.082;2022-12-18T09:56:18;101912.59;;;13.54;100.00
9335;BME280;4706;41.844;26.082;2022-12-18T09:58:55;101906.63;;;13.37;100.00
9335;BME280;4706;41.844;26.082;2022-12-18T10:01:22;101912.41;;;13.41;100.00
9335;BME280;4706;41.844;26.082;2022-12-18T10:03:49;101892.03;;;13.26;100.00
9335;BME280;4706;41.844;26.082;2022-12-18T10:06:35;101913.53;;;13.34;100.00
9335;BME280;4706;41.844;26.082;2022-12-18T10:09:15;101908.00;;;13.34;100.00
9335;BME280;4706;41.844;26.082;2022-12-18T10:14:46;101910.56;;;13.26;100.00
9335;BME280;4706;41.844;26.082;2022-12-18T10:20:34;101919.31;;;13.38;100.00
9335;BME280;4706;41.844;26.082;2022-12-18T10:23:20;101925.97;;;13.37;100.00
9335;BME280;4706;41.844;26.082;2022-12-18T10:26:01;101925.41;;;13.35;100.00
9335;BME280;4706;41.844;26.082;2022-12-18T10:28:29;101917.47;;;13.23;100.00
9335;BME280;4706;41.844;26.082;2022-12-18T10:30:55;101922.44;;;13.26;100.00
9335;BME280;4706;41.844;26.082;2022-12-18T10:33:23;101922.16;;;13.23;100.00
9335;BME280;4706;41.844;26.082;2022-12-18T10:35:52;101915.53;;;13.19;100.00
9335;BME280;4706;41.844;26.082;2022-12-18T10:43:20;101923.25;;;13.27;100.00
9335;BME280;4706;41.844;26.082;2022-12-18T10:46:02;101930.09;;;13.34;100.00
9335;BME280;4706;41.844;26.082;2022-12-18T10:48:30;101925.91;;;13.47;100.00
9335;BME280;4706;41.844;26.082;2022-12-18T10:50:56;101920.50;;;13.27;100.00
9335;BME280;4706;41.844;26.082;2022-12-18T10:53:28;101926.56;;;13.29;100.00
9335;BME280;4706;41.844;26.082;2022-12-18T10:55:55;101927.41;;;13.29;100.00
9335;BME280;4706;41.844;26.082;2022-12-18T11:03:35;101881.97;;;13.01;100.00
9335;BME280;4706;41.844;26.082;2022-12-18T11:06:03;101928.47;;;13.33;100.00
9335;BME280;4706;41.844;26.082;2022-12-18T11:08:29;101929.28;;;13.39;100.00
9335;BME280;4706;41.844;26.082;2022-12-18T11:10:55;101930.09;;;13.34;100.00
9335;BME280;4706;41.844;26.082;2022-12-18T11:13:23;101932.31;;;13.38;100.00
9335;BME280;4706;41.844;26.082;2022-12-18T11:15:49;101935.44;;;13.26;100.00
9335;BME280;4706;41.844;26.082;2022-12-18T11:20:52;101937.66;;;13.19;100.00
9335;BME280;4706;41.844;26.082;2022-12-18T11:23:18;101927.72;;;13.18;100.00
9335;BME280;4706;41.844;26.082;2022-12-18T11:25:54;101953.91;;;13.30;100.00
9335;BME280;4706;41.844;26.082;2022-12-18T11:28:40;101960.25;;;13.31;100.00
9335;BME280;4706;41.844;26.082;2022-12-18T11:31:20;101959.44;;;13.30;100.00
9335;BME280;4706;41.844;26.082;2022-12-18T11:36:35;101963.59;;;13.23;100.00
9335;BME280;4706;41.844;26.082;2022-12-18T11:39:15;101956.47;;;13.17;100.00
9335;BME280;4706;41.844;26.082;2022-12-18T11:44:52;101964.13;;;13.30;100.00
9335;BME280;4706;41.844;26.082;2022-12-18T11:47:31;101966.84;;;13.40;100.00
9335;BME280;4706;41.844;26.082;2022-12-18T11:50:05;101973.41;;;13.49;100.00
9335;BME280;4706;41.844;26.082;2022-12-18T11:52:40;101969.88;;;13.39;100.00
9335;BME280;4706;41.844;26.082;2022-12-18T11:55:18;101965.78;;;13.36;100.00
9335;BME280;4706;41.844;26.082;2022-12-18T12:00:57;101975.66;;;13.47;100.00
9335;BME280;4706;41.844;26.082;2022-12-18T12:23:02;101977.00;;;13.50;100.00
9335;BME280;4706;41.844;26.082;2022-12-18T12:25:39;101972.81;;;13.57;100.00
9335;BME280;4706;41.844;26.082;2022-12-18T12:38:50;101976.31;;;13.29;100.00
9335;BME280;4706;41.844;26.082;2022-12-18T12:41:22;101980.47;;;13.16;100.00
9335;BME280;4706;41.844;26.082;2022-12-18T12:44:15;101997.03;;;13.21;100.00
9335;BME280;4706;41.844;26.082;2022-12-18T12:46:42;102002.03;;;13.24;100.00
9335;BME280;4706;41.844;26.082;2022-12-18T12:49:17;102000.31;;;13.33;100.00
9335;BME280;4706;41.844;26.082;2022-12-18T12:51:47;102011.41;;;13.28;100.00
9335;BME280;4706;41.844;26.082;2022-12-18T12:54:19;102002.84;;;13.25;100.00
9335;BME280;4706;41.844;26.082;2022-12-18T12:57:01;102005.84;;;13.33;100.00
9335;BME280;4706;41.844;26.082;2022-12-18T13:07:59;102040.97;;;13.23;100.00
9335;BME280;4706;41.844;26.082;2022-12-18T13:10:33;102049.66;;;12.91;100.00
9335;BME280;4706;41.844;26.082;2022-12-18T13:18:16;102055.19;;;12.80;100.00
9335;BME280;4706;41.844;26.082;2022-12-18T13:20:46;102062.09;;;12.83;100.00
9335;BME280;4706;41.844;26.082;2022-12-18T13:31:03;102084.22;;;12.57;100.00
9335;BME280;4706;41.844;26.082;2022-12-18T13:33:39;102095.50;;;12.56;100.00
9335;BME280;4706;41.844;26.082;2022-12-18T13:36:27;102089.47;;;12.54;100.00
9335;BME280;4706;41.844;26.082;2022-12-18T13:41:52;102096.63;;;12.75;99.55
9335;BME280;4706;41.844;26.082;2022-12-18T13:44:34;102103.25;;;12.69;97.42
9335;BME280;4706;41.844;26.082;2022-12-18T13:47:04;102104.34;;;12.48;98.28
9335;BME280;4706;41.844;26.082;2022-12-18T13:49:41;102098.00;;;12.57;98.13
9335;BME280;4706;41.844;26.082;2022-12-18T13:52:29;102111.81;;;12.47;98.85
9335;BME280;4706;41.844;26.082;2022-12-18T13:55:00;102093.59;;;12.36;99.13
9335;BME280;4706;41.844;26.082;2022-12-18T13:57:31;102117.31;;;12.47;97.55
9335;BME280;4706;41.844;26.082;2022-12-18T14:00:17;102104.91;;;12.45;96.74
9335;BME280;4706;41.844;26.082;2022-12-18T14:02:49;102112.63;;;12.43;96.92
9335;BME280;4706;41.844;26.082;2022-12-18T14:05:30;102108.75;;;12.33;97.42
9335;BME280;4706;41.844;26.082;2022-12-18T14:08:01;102122.56;;;12.44;97.41
9335;BME280;4706;41.844;26.082;2022-12-18T14:10:28;102129.47;;;12.36;93.72
9335;BME280;4706;41.844;26.082;2022-12-18T14:12:54;102131.66;;;12.19;93.82
9335;BME280;4706;41.844;26.082;2022-12-18T14:17:53;102131.13;;;12.27;93.94
9335;BME280;4706;41.844;26.082;2022-12-18T14:20:19;102127.22;;;12.18;94.33
9335;BME280;4706;41.844;26.082;2022-12-18T14:22:47;102146.56;;;12.23;95.67
9335;BME280;4706;41.844;26.082;2022-12-18T14:25:22;102153.19;;;12.27;96.40
9335;BME280;4706;41.844;26.082;2022-12-18T14:30:32;102157.34;;;12.39;96.72
9335;BME280;4706;41.844;26.082;2022-12-18T14:33:12;102160.66;;;12.42;96.94
9335;BME280;4706;41.844;26.082;2022-12-18T14:35:40;102163.41;;;12.47;97.11
9335;BME280;4706;41.844;26.082;2022-12-18T14:38:26;102175.00;;;12.59;92.19
9335;BME280;4706;41.844;26.082;2022-12-18T14:41:12;102175.28;;;12.52;88.91
9335;BME280;4706;41.844;26.082;2022-12-18T14:43:43;102176.94;;;12.43;89.89
9335;BME280;4706;41.844;26.082;2022-12-18T14:46:38;102174.16;;;12.28;89.25
9335;BME280;4706;41.844;26.082;2022-12-18T14:49:17;102194.00;;;12.20;90.30
9335;BME280;4706;41.844;26.082;2022-12-18T14:52:05;102192.56;;;12.07;91.63